Time;durP1;ratioP1;P1;durP2;ratioP2;P2;SDS_P1;SDS_P2;PMS_P1;PMS_P2;Temp;Humidity;BMP_temperature;BMP_pressure;BME280_temperature;BME280_humidity;BME280_pressure;Samples;Min_cycle;Max_cycle;Signal;HPM_P1;HPM_P2
2022/01/24 00:00:06;;;;;;;1.60;1.40;;;6.50;99.90;;;;;;5075685;28;20016;-46
2022/01/24 00:02:32;;;;;;;3.17;1.70;;;6.50;99.90;;;;;;5075186;28;20023;-46
2022/01/24 00:04:57;;;;;;;1.40;0.98;;;6.60;99.90;;;;;;5094296;28;20361;-46
2022/01/24 00:07:24;;;;;;;0.93;0.93;;;6.50;99.90;;;;;;5075454;28;20392;-47
2022/01/24 00:09:53;;;;;;;1.63;1.08;;;6.50;99.90;;;;;;5093903;28;20024;-46
2022/01/24 00:12:27;;;;;;;5.40;1.52;;;6.50;99.90;;;;;;5075692;28;20024;-46
2022/01/24 00:15:06;;;;;;;4.03;1.40;;;6.50;99.90;;;;;;5093581;28;20058;-47
2022/01/24 00:17:41;;;;;;;3.20;1.50;;;6.40;99.90;;;;;;5075752;28;20387;-49
2022/01/24 00:28:21;;;;;;;2.72;1.30;;;6.50;99.90;;;;;;5093374;28;20077;-45
2022/01/24 00:30:48;;;;;;;2.30;1.50;;;6.50;99.90;;;;;;5075041;28;20024;-46
2022/01/24 00:33:14;;;;;;;1.75;1.10;;;6.50;99.90;;;;;;5093323;28;20028;-46
2022/01/24 00:35:40;;;;;;;4.55;1.20;;;6.50;99.90;;;;;;5075556;28;20028;-46
2022/01/24 00:38:06;;;;;;;2.33;1.10;;;6.40;99.90;;;;;;5075120;28;20119;-47
2022/01/24 00:40:36;;;;;;;2.00;1.27;;;6.40;99.90;;;;;;5075175;28;20024;-46
2022/01/24 00:43:05;;;;;;;2.15;1.35;;;6.50;99.90;;;;;;5075274;28;20104;-46
2022/01/24 00:55:53;;;;;;;2.15;1.27;;;6.50;99.90;;;;;;5093446;28;20028;-48
2022/01/24 00:58:19;;;;;;;2.05;1.35;;;6.50;99.90;;;;;;5093001;28;20072;-46
2022/01/24 01:00:44;;;;;;;2.17;1.63;;;6.60;99.90;;;;;;5091791;28;20059;-47
2022/01/24 01:03:10;;;;;;;1.13;1.02;;;6.50;99.90;;;;;;5092093;28;20085;-51
2022/01/24 01:18:49;;;;;;;2.50;1.48;;;6.60;99.90;;;;;;5097227;28;20394;-51
2022/01/24 01:21:16;;;;;;;2.33;1.50;;;6.60;99.90;;;;;;5078634;28;20091;-50
2022/01/24 01:23:48;;;;;;;2.63;1.17;;;6.60;99.90;;;;;;5079337;28;20028;-45
2022/01/24 01:26:29;;;;;;;2.05;1.30;;;6.60;99.90;;;;;;5078566;28;20085;-46
2022/01/24 01:29:02;;;;;;;1.75;1.40;;;6.50;99.90;;;;;;5079303;28;20028;-45
2022/01/24 01:37:06;;;;;;;1.42;1.13;;;6.40;99.90;;;;;;5096587;28;20066;-46
2022/01/24 01:55:40;;;;;;;1.58;1.10;;;6.40;99.90;;;;;;5096118;28;20039;-46
2022/01/24 01:58:15;;;;;;;1.52;1.40;;;6.40;99.90;;;;;;5094744;28;20028;-46
2022/01/24 02:00:45;;;;;;;2.10;1.33;;;6.60;99.90;;;;;;5096283;28;20022;-46
2022/01/24 02:03:12;;;;;;;2.00;1.45;;;6.60;99.90;;;;;;5077828;28;20114;-46
2022/01/24 02:05:38;;;;;;;1.42;1.00;;;6.50;99.90;;;;;;5077788;28;20024;-47
2022/01/24 02:08:04;;;;;;;4.07;1.77;;;6.60;99.90;;;;;;5077615;28;20063;-46
2022/01/24 02:10:33;;;;;;;2.60;1.48;;;6.50;99.90;;;;;;5095830;28;20032;-46
2022/01/24 02:12:59;;;;;;;2.00;1.58;;;6.60;99.90;;;;;;5096052;28;20532;-46
2022/01/24 02:15:46;;;;;;;2.05;1.50;;;6.50;99.90;;;;;;5077620;28;20050;-46
2022/01/24 02:18:29;;;;;;;1.90;1.50;;;6.50;99.90;;;;;;5096205;28;20020;-46
2022/01/24 02:21:42;;;;;;;1.80;1.40;;;6.50;99.90;;;;;;5078422;28;20020;-46
2022/01/24 02:23:48;;;;;;;1.65;1.38;;;6.50;99.90;;;;;;5090193;28;20036;-46
2022/01/24 02:26:19;;;;;;;3.15;1.73;;;6.50;99.90;;;;;;5077324;28;20020;-45
2022/01/24 02:29:11;;;;;;;3.00;1.60;;;6.40;99.90;;;;;;5078193;28;20053;-46
2022/01/24 02:31:47;;;;;;;2.42;1.15;;;6.50;99.90;;;;;;5095115;28;20040;-46
2022/01/24 02:34:26;;;;;;;1.88;1.20;;;6.40;99.90;;;;;;5077375;28;20021;-46
2022/01/24 02:36:54;;;;;;;1.48;1.08;;;6.40;99.90;;;;;;5094749;28;20111;-45
2022/01/24 02:50:27;;;;;;;1.20;1.00;;;6.60;99.90;;;;;;5094688;28;20043;-45
2022/01/24 02:52:52;;;;;;;1.23;0.90;;;6.60;99.90;;;;;;5075854;28;20024;-46
2022/01/24 02:55:18;;;;;;;0.98;0.70;;;6.60;99.90;;;;;;5092803;28;20311;-48
2022/01/24 02:57:44;;;;;;;0.65;0.60;;;6.60;99.90;;;;;;5076138;28;20119;-45
2022/01/24 03:00:10;;;;;;;0.98;0.90;;;6.70;99.90;;;;;;5075863;28;20028;-46
2022/01/24 03:02:35;;;;;;;2.38;0.70;;;6.70;99.90;;;;;;5075972;28;20034;-45
2022/01/24 03:05:01;;;;;;;3.00;0.63;;;6.60;99.90;;;;;;5076857;28;20115;-47
2022/01/24 03:07:27;;;;;;;1.95;0.70;;;6.80;99.90;;;;;;5075682;28;20020;-44
2022/01/24 03:09:55;;;;;;;0.50;0.50;;;6.90;99.90;;;;;;5094042;28;20430;-46
2022/01/24 03:12:40;;;;;;;0.70;0.70;;;6.90;99.90;;;;;;5076620;28;20035;-44
2022/01/24 03:15:07;;;;;;;1.35;0.70;;;6.80;99.90;;;;;;5092389;28;20023;-44
2022/01/24 03:17:32;;;;;;;0.75;0.57;;;6.80;99.90;;;;;;5075687;28;20115;-44
2022/01/24 03:19:58;;;;;;;1.00;0.80;;;6.60;99.90;;;;;;5076030;28;20062;-44
2022/01/24 03:22:23;;;;;;;0.88;0.55;;;6.40;99.90;;;;;;5093489;28;20051;-46
2022/01/24 03:24:49;;;;;;;0.68;0.60;;;6.30;99.90;;;;;;5093506;28;20057;-45
2022/01/24 03:27:15;;;;;;;1.23;0.68;;;6.40;99.90;;;;;;5092117;28;20024;-44
2022/01/24 03:29:41;;;;;;;0.50;0.50;;;6.40;99.90;;;;;;5075247;28;20028;-44
2022/01/24 03:32:07;;;;;;;1.00;0.70;;;6.30;99.90;;;;;;5075473;28;20073;-46
2022/01/24 03:34:33;;;;;;;0.70;0.60;;;6.40;99.90;;;;;;5075519;28;20055;-44
2022/01/24 03:36:59;;;;;;;0.75;0.60;;;6.10;99.90;;;;;;5054465;28;1095068;-43
2022/01/24 03:39:24;;;;;;;0.82;0.60;;;6.00;99.90;;;;;;5094160;28;20020;-49
2022/01/24 03:41:50;;;;;;;0.68;0.60;;;6.00;99.90;;;;;;5075944;28;20028;-46
2022/01/24 03:44:18;;;;;;;0.77;0.75;;;5.90;99.90;;;;;;5075880;28;20109;-46
2022/01/24 03:47:02;;;;;;;1.55;1.17;;;6.10;99.90;;;;;;5075995;28;20024;-46
2022/01/24 03:49:52;;;;;;;1.00;0.65;;;6.40;99.90;;;;;;5075770;28;20046;-44
2022/01/24 03:52:19;;;;;;;2.58;0.70;;;6.70;99.90;;;;;;5076522;28;20027;-45
2022/01/24 03:54:46;;;;;;;2.15;0.80;;;6.60;99.90;;;;;;5075681;28;20023;-49
2022/01/24 03:57:14;;;;;;;0.93;0.60;;;6.30;99.90;;;;;;5075536;28;20020;-46
2022/01/24 03:59:40;;;;;;;0.77;0.77;;;6.20;99.90;;;;;;5075610;28;20024;-44
2022/01/24 04:02:06;;;;;;;1.33;0.90;;;6.10;99.90;;;;;;5093730;28;20373;-44
2022/01/24 04:04:32;;;;;;;1.52;1.10;;;6.00;99.90;;;;;;5075555;28;20118;-48
2022/01/24 04:06:58;;;;;;;1.65;0.63;;;5.90;99.90;;;;;;5092353;28;20027;-45
2022/01/24 04:09:23;;;;;;;0.82;0.70;;;6.00;99.90;;;;;;5075447;28;20024;-45
2022/01/24 04:11:53;;;;;;;0.60;0.60;;;6.00;99.90;;;;;;5093809;28;20069;-48
2022/01/24 04:14:31;;;;;;;1.48;0.52;;;5.90;99.90;;;;;;5093629;28;20020;-47
2022/01/24 04:22:10;;;;;;;0.40;0.40;;;5.90;99.90;;;;;;5093811;28;20304;-44
2022/01/24 04:24:36;;;;;;;1.20;0.73;;;5.90;99.90;;;;;;5076153;28;20082;-45
2022/01/24 04:27:02;;;;;;;0.82;0.82;;;5.90;99.90;;;;;;5075239;28;20020;-46
2022/01/24 04:29:28;;;;;;;0.63;0.50;;;5.90;99.90;;;;;;5093344;28;20039;-49
2022/01/24 04:31:53;;;;;;;0.57;0.57;;;5.90;99.90;;;;;;5092045;28;20066;-44
2022/01/24 04:34:19;;;;;;;0.50;0.50;;;5.70;99.90;;;;;;5075476;28;20024;-46
2022/01/24 04:36:45;;;;;;;1.08;0.50;;;5.80;99.90;;;;;;5075073;28;20067;-43
2022/01/24 04:39:10;;;;;;;0.85;0.50;;;5.80;99.90;;;;;;5075201;28;20024;-45
2022/01/24 04:41:40;;;;;;;0.85;0.70;;;5.70;99.90;;;;;;5091993;28;20480;-46
2022/01/24 04:52:14;;;;;;;0.90;0.60;;;5.70;99.90;;;;;;5097852;28;20072;-46
2022/01/24 04:54:44;;;;;;;3.60;2.03;;;5.70;99.90;;;;;;5079185;28;20024;-46
2022/01/24 04:57:14;;;;;;;1.40;0.50;;;5.70;99.90;;;;;;5079534;28;20020;-43
2022/01/24 04:59:40;;;;;;;0.77;0.60;;;5.70;99.90;;;;;;5097148;28;20021;-46
2022/01/24 05:02:06;;;;;;;1.30;1.20;;;5.70;99.90;;;;;;5079024;28;20392;-47
2022/01/24 05:04:32;;;;;;;0.65;0.65;;;5.80;99.90;;;;;;5079253;28;20054;-45
2022/01/24 05:06:58;;;;;;;0.55;0.43;;;5.70;99.90;;;;;;5097062;28;20027;-46
2022/01/24 05:09:25;;;;;;;0.63;0.55;;;5.70;99.90;;;;;;5097270;28;20027;-44
2022/01/24 05:25:18;;;;;;;0.70;0.30;;;5.70;99.90;;;;;;5096807;28;20084;-46
2022/01/24 05:27:43;;;;;;;0.50;0.40;;;5.80;99.90;;;;;;5078355;28;20080;-46
2022/01/24 05:30:10;;;;;;;16.20;5.93;;;6.00;99.90;;;;;;5079171;28;20115;-45
2022/01/24 05:32:35;;;;;;;1.05;0.80;;;6.00;99.90;;;;;;5078601;28;20031;-45
2022/01/24 05:35:01;;;;;;;4.18;1.90;;;6.00;99.90;;;;;;5096497;28;20020;-47
2022/01/24 05:37:27;;;;;;;10.77;3.00;;;5.90;99.90;;;;;;5078253;28;20085;-44
2022/01/24 05:39:52;;;;;;;16.52;6.03;;;5.90;99.90;;;;;;5078264;28;20102;-44
2022/01/24 05:42:21;;;;;;;10.88;3.80;;;5.80;99.90;;;;;;5078222;28;20056;-47
2022/01/24 05:44:50;;;;;;;1.92;1.30;;;5.80;99.90;;;;;;5096354;28;20077;-48
2022/01/24 05:47:17;;;;;;;2.33;1.33;;;5.80;99.90;;;;;;5096122;28;20020;-47
2022/01/24 05:49:43;;;;;;;1.67;0.60;;;5.80;99.90;;;;;;5096217;28;20031;-48
2022/01/24 05:52:09;;;;;;;1.25;1.15;;;5.80;99.90;;;;;;5077900;28;20119;-46
2022/01/24 05:54:37;;;;;;;1.35;0.70;;;5.80;99.90;;;;;;5079033;28;20062;-46
2022/01/24 05:57:03;;;;;;;0.52;0.47;;;5.80;99.90;;;;;;5078121;28;20116;-43
2022/01/24 05:59:29;;;;;;;1.40;0.68;;;5.80;99.90;;;;;;5095956;28;20020;-45
2022/01/24 06:01:54;;;;;;;1.15;0.80;;;5.70;99.90;;;;;;5095562;28;20035;-46
2022/01/24 06:04:20;;;;;;;1.58;0.90;;;5.70;99.90;;;;;;5094799;28;20027;-45
2022/01/24 06:06:45;;;;;;;0.70;0.63;;;5.70;99.90;;;;;;5095561;28;20051;-44
2022/01/24 06:09:11;;;;;;;2.88;0.73;;;5.80;99.90;;;;;;5095940;28;20032;-46
2022/01/24 06:11:37;;;;;;;1.13;0.73;;;5.90;99.90;;;;;;5078826;28;20124;-44
2022/01/24 06:14:04;;;;;;;0.80;0.65;;;5.70;99.90;;;;;;5077688;28;20023;-45
2022/01/24 06:16:29;;;;;;;0.40;0.40;;;5.70;99.90;;;;;;5095632;28;20012;-46
2022/01/24 06:18:55;;;;;;;4.95;0.75;;;5.60;99.90;;;;;;5095887;28;20531;-44
2022/01/24 06:21:20;;;;;;;1.20;1.00;;;5.60;99.90;;;;;;5077575;28;20028;-45
2022/01/24 06:23:46;;;;;;;2.28;1.38;;;5.60;99.90;;;;;;5077792;28;20028;-47
2022/01/24 06:26:12;;;;;;;2.22;1.45;;;5.60;99.90;;;;;;5077868;28;20030;-46
2022/01/24 06:28:38;;;;;;;0.88;0.68;;;5.60;99.90;;;;;;5095511;28;20035;-45
2022/01/24 06:31:03;;;;;;;0.75;0.70;;;5.70;99.90;;;;;;5077299;28;20024;-46
2022/01/24 06:33:29;;;;;;;1.83;1.20;;;5.70;99.90;;;;;;5077347;28;20024;-45
2022/01/24 06:35:55;;;;;;;2.67;1.20;;;5.60;99.90;;;;;;5077205;28;20024;-45
2022/01/24 06:38:21;;;;;;;2.40;1.58;;;5.60;99.90;;;;;;5093949;28;20031;-45
2022/01/24 06:40:46;;;;;;;4.60;2.42;;;5.70;99.90;;;;;;5077158;28;20024;-48
2022/01/24 06:43:12;;;;;;;1.10;0.80;;;5.70;99.90;;;;;;5095216;28;20086;-45
2022/01/24 06:45:38;;;;;;;1.10;0.82;;;5.80;99.90;;;;;;5095523;28;20020;-45
2022/01/24 06:48:03;;;;;;;4.35;2.05;;;5.70;99.90;;;;;;5095101;28;20031;-45
2022/01/24 06:50:29;;;;;;;6.57;3.30;;;5.60;99.90;;;;;;5095382;28;20039;-45
2022/01/24 06:52:55;;;;;;;3.00;2.30;;;5.70;99.90;;;;;;5077090;28;20115;-45
2022/01/24 06:55:20;;;;;;;2.95;2.08;;;5.80;99.90;;;;;;5077254;28;20024;-45
2022/01/24 06:57:46;;;;;;;2.65;1.40;;;5.70;99.90;;;;;;5094850;28;20024;-45
2022/01/24 07:00:12;;;;;;;3.03;1.52;;;5.70;99.90;;;;;;5094858;28;20028;-45
2022/01/24 07:02:38;;;;;;;2.78;1.75;;;5.90;99.90;;;;;;5076992;28;20024;-45
2022/01/24 07:05:04;;;;;;;1.52;1.20;;;5.90;99.90;;;;;;5076700;28;20030;-45
2022/01/24 07:07:30;;;;;;;3.42;0.95;;;5.90;99.90;;;;;;5076650;28;20024;-44
2022/01/24 07:09:56;;;;;;;1.42;1.30;;;5.90;99.90;;;;;;5077372;28;20365;-45
2022/01/24 07:12:24;;;;;;;1.95;0.93;;;5.90;99.90;;;;;;5075673;28;20111;-45
2022/01/24 07:14:49;;;;;;;1.30;1.17;;;5.80;99.90;;;;;;5076832;28;20020;-45
2022/01/24 07:19:41;;;;;;;2.38;1.55;;;5.70;99.90;;;;;;5094828;28;20020;-45
2022/01/24 07:22:06;;;;;;;4.43;2.15;;;5.70;99.90;;;;;;5094465;28;20020;-45
2022/01/24 07:24:33;;;;;;;6.35;2.63;;;5.80;99.90;;;;;;5093257;28;20024;-47
2022/01/24 07:26:59;;;;;;;4.95;2.70;;;5.70;99.90;;;;;;5076458;28;20024;-44
2022/01/24 07:29:25;;;;;;;3.13;1.40;;;5.60;99.90;;;;;;5076365;28;20032;-45
2022/01/24 07:31:51;;;;;;;1.55;1.20;;;5.60;99.90;;;;;;5076059;28;20034;-45
2022/01/24 07:34:17;;;;;;;2.05;1.17;;;5.60;99.90;;;;;;5093026;28;20024;-45
2022/01/24 07:36:43;;;;;;;1.27;0.80;;;5.60;99.90;;;;;;5076110;28;20064;-45
2022/01/24 07:39:08;;;;;;;1.45;1.00;;;5.50;99.90;;;;;;5094137;28;20036;-46
2022/01/24 07:41:42;;;;;;;1.50;1.27;;;5.50;99.90;;;;;;5094023;28;20028;-46
2022/01/24 07:44:07;;;;;;;2.03;1.17;;;5.60;99.90;;;;;;5094494;28;20020;-44
2022/01/24 07:46:34;;;;;;;0.90;0.90;;;5.70;99.90;;;;;;5094195;28;20050;-47
2022/01/24 07:49:01;;;;;;;1.50;1.00;;;5.70;99.90;;;;;;5076460;28;20030;-46
2022/01/24 07:51:27;;;;;;;1.38;1.10;;;5.70;99.90;;;;;;5093905;28;20028;-45
2022/01/24 07:53:53;;;;;;;1.42;0.95;;;5.70;99.90;;;;;;5093959;28;20027;-45
2022/01/24 07:56:19;;;;;;;1.10;0.85;;;5.70;99.90;;;;;;5093771;28;20024;-46
2022/01/24 07:58:45;;;;;;;1.70;1.02;;;5.80;99.90;;;;;;5076005;28;20023;-47
2022/01/24 08:01:12;;;;;;;2.22;1.48;;;5.80;99.90;;;;;;5075655;28;20063;-46
2022/01/24 08:03:38;;;;;;;1.08;0.88;;;5.80;99.90;;;;;;5075947;28;20028;-45
2022/01/24 08:06:04;;;;;;;0.82;0.80;;;5.80;99.90;;;;;;5076641;28;20024;-45
2022/01/24 08:08:29;;;;;;;1.10;0.90;;;5.60;99.90;;;;;;5075935;28;20028;-45
2022/01/24 08:10:55;;;;;;;2.22;1.42;;;5.60;99.90;;;;;;5093626;28;20095;-47
2022/01/24 08:13:21;;;;;;;1.92;0.95;;;5.60;99.90;;;;;;5092308;28;20025;-45
2022/01/24 08:15:47;;;;;;;1.48;0.90;;;5.70;99.90;;;;;;5075425;28;20028;-45
2022/01/24 08:18:14;;;;;;;1.92;1.27;;;5.70;99.90;;;;;;5093436;28;20016;-46
2022/01/24 08:20:41;;;;;;;2.28;1.42;;;5.70;99.90;;;;;;5075507;28;20024;-45
2022/01/24 08:23:09;;;;;;;1.58;1.20;;;5.70;99.90;;;;;;5075552;28;20024;-46
2022/01/24 08:25:34;;;;;;;1.73;1.00;;;5.70;99.90;;;;;;5075422;28;20031;-45
2022/01/24 08:28:00;;;;;;;1.00;0.90;;;5.50;99.90;;;;;;5075315;28;20032;-45
2022/01/24 08:30:26;;;;;;;0.50;0.50;;;5.40;99.90;;;;;;5075717;28;20069;-45
2022/01/24 08:32:51;;;;;;;1.10;0.98;;;5.40;99.90;;;;;;5075869;28;20031;-45
2022/01/24 08:35:19;;;;;;;1.25;1.10;;;5.60;99.90;;;;;;5075326;28;20026;-45
2022/01/24 08:37:45;;;;;;;2.10;1.73;;;5.60;99.90;;;;;;5093138;28;20040;-45
2022/01/24 08:40:21;;;;;;;0.85;0.70;;;5.70;99.90;;;;;;5075229;28;20028;-47
2022/01/24 08:43:05;;;;;;;1.42;0.80;;;5.70;99.90;;;;;;5075274;28;20024;-50
2022/01/24 08:45:50;;;;;;;1.75;0.90;;;5.60;99.90;;;;;;5075138;28;20062;-47
2022/01/24 08:48:19;;;;;;;2.05;1.10;;;5.70;99.90;;;;;;5075160;28;20032;-48
2022/01/24 08:50:54;;;;;;;4.10;0.85;;;5.70;99.90;;;;;;5075518;28;20020;-48
2022/01/24 08:53:19;;;;;;;1.10;0.88;;;5.70;99.90;;;;;;5093199;28;20066;-46
2022/01/24 08:55:46;;;;;;;0.65;0.65;;;5.70;99.90;;;;;;5075030;28;20032;-46
2022/01/24 08:58:13;;;;;;;1.75;1.08;;;5.60;99.90;;;;;;5093052;28;20028;-45
2022/01/24 09:00:40;;;;;;;1.88;1.08;;;5.60;99.90;;;;;;5075296;28;20020;-46
2022/01/24 09:03:06;;;;;;;0.70;0.50;;;5.50;99.90;;;;;;5075036;28;20035;-47
2022/01/24 09:05:35;;;;;;;2.55;0.82;;;5.60;99.90;;;;;;5093192;28;20020;-49
2022/01/24 09:08:03;;;;;;;1.38;0.75;;;5.70;99.90;;;;;;5092963;28;20080;-48
2022/01/24 09:10:28;;;;;;;1.00;1.00;;;5.60;99.90;;;;;;5075883;28;20024;-48
2022/01/24 09:12:54;;;;;;;1.30;1.20;;;5.50;99.90;;;;;;5091699;28;20038;-47
2022/01/24 09:15:20;;;;;;;1.45;1.10;;;5.50;99.90;;;;;;5074898;28;20059;-48
2022/01/24 09:17:45;;;;;;;0.90;0.88;;;5.60;99.90;;;;;;5091690;28;20032;-47
2022/01/24 09:20:12;;;;;;;1.23;0.75;;;5.60;99.90;;;;;;5093497;28;20019;-47
2022/01/24 09:22:38;;;;;;;1.42;1.10;;;5.60;99.90;;;;;;5092888;28;20030;-47
2022/01/24 09:25:05;;;;;;;2.10;1.00;;;5.70;99.90;;;;;;5075054;28;20111;-47
2022/01/24 09:27:31;;;;;;;0.68;0.68;;;5.80;99.90;;;;;;5075278;28;20020;-50
2022/01/24 09:29:58;;;;;;;2.20;1.40;;;6.10;99.90;;;;;;5092768;28;20024;-47
2022/01/24 09:32:24;;;;;;;3.38;1.25;;;5.90;99.90;;;;;;5074850;28;20024;-49
2022/01/24 09:34:49;;;;;;;1.35;1.10;;;6.00;99.90;;;;;;5092744;28;20020;-47
2022/01/24 09:37:15;;;;;;;1.80;1.00;;;6.00;99.90;;;;;;5096295;28;20040;-48
2022/01/24 09:39:41;;;;;;;2.92;0.80;;;6.20;99.90;;;;;;5096572;28;20021;-47
2022/01/24 09:42:07;;;;;;;3.10;1.40;;;6.20;99.90;;;;;;5096480;28;20024;-48
2022/01/24 09:44:33;;;;;;;3.17;1.17;;;6.30;99.90;;;;;;5078415;28;20032;-47
2022/01/24 09:46:59;;;;;;;2.47;1.13;;;6.30;99.90;;;;;;5078767;28;20047;-47
2022/01/24 09:49:25;;;;;;;2.20;1.00;;;6.50;99.90;;;;;;5096358;28;20082;-47
2022/01/24 09:51:50;;;;;;;0.80;0.70;;;6.70;99.90;;;;;;5095512;28;20024;-47
2022/01/24 09:54:16;;;;;;;1.10;0.90;;;6.60;99.90;;;;;;5078926;28;20024;-47
2022/01/24 09:56:42;;;;;;;2.30;0.70;;;6.50;99.90;;;;;;5078150;28;20020;-47
2022/01/24 09:59:09;;;;;;;2.08;1.48;;;6.40;99.90;;;;;;5096654;28;20020;-47
2022/01/24 10:01:35;;;;;;;5.60;1.75;;;6.30;99.90;;;;;;5096031;28;20024;-46
2022/01/24 10:04:15;;;;;;;2.85;1.23;;;6.20;99.90;;;;;;5096005;28;20027;-47
2022/01/24 10:07:02;;;;;;;2.47;1.17;;;6.10;99.90;;;;;;5096159;28;20080;-50
2022/01/24 10:09:45;;;;;;;4.00;0.80;;;6.10;99.90;;;;;;5077749;28;20051;-50
2022/01/24 10:12:19;;;;;;;0.98;0.90;;;6.10;99.90;;;;;;5078601;28;20028;-50
2022/01/24 10:17:33;;;;;;;3.28;1.10;;;6.30;99.90;;;;;;5096132;28;20059;-48
2022/01/24 10:20:21;;;;;;;5.28;2.10;;;6.20;99.90;;;;;;5077868;28;20074;-50
2022/01/24 10:23:24;;;;;;;3.45;2.08;;;6.10;99.90;;;;;;5077562;28;20028;-47
2022/01/24 10:26:00;;;;;;;3.95;1.55;;;6.10;99.90;;;;;;5036613;28;20043;-47
2022/01/24 10:28:33;;;;;;;2.45;1.60;;;6.00;99.90;;;;;;5078274;28;20059;-47
2022/01/24 10:31:19;;;;;;;2.65;1.50;;;6.00;99.90;;;;;;5078185;28;20028;-47
2022/01/24 10:33:58;;;;;;;1.63;1.38;;;6.10;99.90;;;;;;5077617;28;20024;-48
2022/01/24 10:36:37;;;;;;;4.68;1.25;;;6.10;99.90;;;;;;5095321;28;20019;-48
2022/01/24 10:42:41;;;;;;;1.63;1.15;;;6.10;99.90;;;;;;5084469;28;20039;-47
2022/01/24 10:45:10;;;;;;;1.98;1.45;;;6.20;99.90;;;;;;5078243;28;20023;-47
2022/01/24 10:47:43;;;;;;;1.73;1.25;;;6.20;99.90;;;;;;5075624;28;20062;-47
2022/01/24 10:50:09;;;;;;;1.95;1.23;;;6.20;99.90;;;;;;5077003;28;20027;-48
2022/01/24 10:52:35;;;;;;;2.85;1.33;;;6.30;99.90;;;;;;5094956;28;20026;-47
2022/01/24 10:55:20;;;;;;;1.35;1.20;;;6.50;99.90;;;;;;5094976;28;20024;-48
2022/01/24 10:57:55;;;;;;;1.65;1.23;;;6.40;99.90;;;;;;5077224;28;20087;-48
2022/01/24 11:00:27;;;;;;;1.83;1.23;;;6.30;99.90;;;;;;5095011;28;20054;-47
2022/01/24 11:02:55;;;;;;;3.50;1.48;;;6.30;99.90;;;;;;5077033;28;20089;-47
2022/01/24 11:05:23;;;;;;;1.85;1.50;;;6.30;99.90;;;;;;5077441;28;20028;-48
2022/01/24 11:07:51;;;;;;;1.10;1.00;;;6.30;99.90;;;;;;5076552;28;20028;-49
2022/01/24 11:10:17;;;;;;;2.88;1.70;;;6.50;99.90;;;;;;5095342;28;20035;-46
2022/01/24 11:12:42;;;;;;;2.78;1.35;;;6.60;99.90;;;;;;5094958;28;20070;-48
2022/01/24 11:15:10;;;;;;;2.60;1.80;;;6.70;99.90;;;;;;5094865;28;20052;-47
2022/01/24 11:17:36;;;;;;;1.45;1.20;;;6.80;99.90;;;;;;5095099;28;20027;-46
2022/01/24 11:20:03;;;;;;;2.60;1.65;;;7.00;99.90;;;;;;5076376;28;20016;-54
2022/01/24 11:22:32;;;;;;;4.80;1.33;;;7.30;99.90;;;;;;5094781;28;20024;-50
2022/01/24 11:25:04;;;;;;;3.08;1.52;;;7.50;99.90;;;;;;5094439;28;20022;-54
2022/01/24 11:27:30;;;;;;;3.17;1.30;;;7.60;99.90;;;;;;5076783;28;20028;-49
2022/01/24 11:30:02;;;;;;;1.77;1.20;;;7.40;99.90;;;;;;5076358;28;20027;-51
2022/01/24 11:32:30;;;;;;;2.22;1.20;;;7.10;99.90;;;;;;5076135;28;20131;-56
2022/01/24 11:34:57;;;;;;;1.50;1.17;;;7.10;99.90;;;;;;5094595;28;20028;-51
2022/01/24 11:37:45;;;;;;;2.35;1.70;;;7.30;99.90;;;;;;5094000;28;20031;-50
2022/01/24 11:40:15;;;;;;;1.38;1.10;;;7.40;99.90;;;;;;5076158;28;20034;-54
2022/01/24 11:42:44;;;;;;;2.95;1.40;;;7.20;99.90;;;;;;5075985;28;20023;-52
2022/01/24 11:45:14;;;;;;;2.67;1.42;;;7.30;99.90;;;;;;5075967;28;20030;-53
2022/01/24 11:47:42;;;;;;;1.67;1.42;;;6.90;99.90;;;;;;5094048;28;20104;-52
2022/01/24 11:50:42;;;;;;;2.88;1.55;;;6.40;99.90;;;;;;5094068;28;20024;-50
2022/01/24 11:53:28;;;;;;;5.00;1.95;;;6.30;99.90;;;;;;5094046;28;20032;-55
2022/01/24 11:55:55;;;;;;;1.88;1.50;;;6.30;99.90;;;;;;5075880;28;20031;-50
2022/01/24 11:58:27;;;;;;;3.28;1.70;;;6.30;99.90;;;;;;5093441;28;20103;-51
2022/01/24 12:00:55;;;;;;;1.60;1.48;;;6.30;99.90;;;;;;5093930;28;20044;-54
2022/01/24 12:03:26;;;;;;;1.90;1.58;;;6.30;99.90;;;;;;5075694;28;20028;-51
2022/01/24 12:05:54;;;;;;;4.82;1.58;;;6.50;99.90;;;;;;5093861;28;20028;-50
2022/01/24 12:08:38;;;;;;;2.95;1.80;;;6.50;99.90;;;;;;5075499;28;20036;-54
2022/01/24 12:11:27;;;;;;;1.67;1.42;;;6.30;99.90;;;;;;5075590;28;20024;-55
2022/01/24 12:14:10;;;;;;;4.82;1.42;;;6.30;99.90;;;;;;5094199;28;20073;-54
2022/01/24 12:16:42;;;;;;;3.15;1.35;;;6.40;99.90;;;;;;5075946;28;20024;-53
2022/01/24 12:19:10;;;;;;;3.35;1.23;;;6.30;99.90;;;;;;5075476;28;20395;-53
2022/01/24 12:21:38;;;;;;;3.25;2.00;;;6.40;99.90;;;;;;5075404;28;20032;-50
2022/01/24 12:24:13;;;;;;;2.60;1.65;;;6.50;99.90;;;;;;5093459;28;20051;-50
2022/01/24 12:26:45;;;;;;;2.30;1.67;;;6.50;99.90;;;;;;5075604;28;20027;-54
2022/01/24 12:29:17;;;;;;;2.22;1.45;;;6.50;99.90;;;;;;5075359;28;20020;-53
2022/01/24 12:31:51;;;;;;;3.80;1.50;;;6.40;99.90;;;;;;5075257;28;20024;-52
2022/01/24 12:34:18;;;;;;;2.00;1.33;;;6.30;99.90;;;;;;5075458;28;20020;-53
2022/01/24 12:36:48;;;;;;;1.55;1.20;;;6.40;99.90;;;;;;5075289;28;20024;-49
2022/01/24 12:39:20;;;;;;;2.28;1.50;;;6.60;99.90;;;;;;5093545;28;20024;-55
2022/01/24 12:41:54;;;;;;;3.65;1.60;;;6.70;99.90;;;;;;5093359;28;20028;-55
2022/01/24 12:47:12;;;;;;;4.30;1.40;;;6.90;99.90;;;;;;5093493;28;20077;-57
2022/01/24 12:49:39;;;;;;;4.88;2.13;;;6.80;99.90;;;;;;5075511;28;20529;-53
2022/01/24 12:52:11;;;;;;;3.38;1.60;;;6.80;99.90;;;;;;5093515;28;20028;-52
2022/01/24 12:54:40;;;;;;;4.93;1.90;;;6.90;99.90;;;;;;5075500;28;20048;-53
2022/01/24 12:57:10;;;;;;;3.90;1.65;;;7.00;99.90;;;;;;5075202;28;20027;-56
2022/01/24 12:59:38;;;;;;;2.42;1.67;;;7.00;99.90;;;;;;5093146;28;20024;-52
2022/01/24 13:02:08;;;;;;;2.40;1.67;;;6.90;99.90;;;;;;5093085;28;20044;-53
2022/01/24 13:04:39;;;;;;;2.47;1.65;;;6.90;99.90;;;;;;5093061;28;20051;-54
2022/01/24 13:07:09;;;;;;;5.07;1.35;;;6.90;99.90;;;;;;5074847;28;20035;-54
2022/01/24 13:09:36;;;;;;;3.50;1.23;;;6.90;99.90;;;;;;5093308;28;20104;-54
2022/01/24 13:12:09;;;;;;;5.30;1.70;;;7.10;99.90;;;;;;5078607;28;20115;-50
2022/01/24 13:25:27;;;;;;;3.88;1.70;;;7.40;99.90;;;;;;5096815;28;20039;-54
2022/01/24 13:27:58;;;;;;;2.40;1.70;;;7.30;99.90;;;;;;5078783;28;20093;-49
2022/01/24 13:30:34;;;;;;;3.40;2.20;;;6.80;99.90;;;;;;5096724;28;20047;-54
2022/01/24 13:33:05;;;;;;;1.92;1.70;;;6.70;99.90;;;;;;5079316;28;20114;-51
2022/01/24 13:35:40;;;;;;;3.00;2.08;;;6.50;99.90;;;;;;5078392;28;20028;-55
2022/01/24 13:38:13;;;;;;;3.33;1.90;;;6.40;99.90;;;;;;5096665;28;20040;-51
2022/01/24 13:41:10;;;;;;;2.97;1.95;;;6.40;99.90;;;;;;5078617;28;20460;-50
2022/01/24 13:43:46;;;;;;;5.97;1.73;;;6.80;99.90;;;;;;5095972;28;20036;-51
2022/01/24 13:46:29;;;;;;;5.60;1.88;;;6.80;99.90;;;;;;5078092;28;20383;-53
2022/01/24 13:48:58;;;;;;;5.70;2.45;;;6.60;99.90;;;;;;5095980;28;20016;-53
2022/01/24 13:51:38;;;;;;;7.20;2.25;;;6.60;99.90;;;;;;5077828;28;20035;-51
2022/01/24 13:54:06;;;;;;;3.65;2.40;;;6.50;99.90;;;;;;5078066;28;20552;-54
2022/01/24 13:56:40;;;;;;;2.75;1.45;;;6.50;99.90;;;;;;5096090;28;20012;-51
2022/01/24 13:59:09;;;;;;;1.80;1.52;;;6.60;99.90;;;;;;5078003;28;20107;-50
2022/01/24 14:01:38;;;;;;;4.90;1.60;;;6.70;99.90;;;;;;5096083;28;20031;-55
2022/01/24 14:04:08;;;;;;;2.78;1.20;;;6.80;99.90;;;;;;5096083;28;20016;-53
2022/01/24 14:06:36;;;;;;;3.17;1.40;;;7.00;99.90;;;;;;5077951;28;20028;-51
2022/01/24 14:09:10;;;;;;;1.77;1.40;;;7.10;99.90;;;;;;5096009;28;20027;-51
2022/01/24 14:11:44;;;;;;;2.58;1.30;;;7.20;99.90;;;;;;5077912;28;20024;-50
2022/01/24 14:14:17;;;;;;;4.05;1.27;;;7.40;99.90;;;;;;5077849;28;20047;-52
2022/01/24 14:19:11;;;;;;;4.40;2.65;;;7.80;99.90;;;;;;5095789;28;20016;-48
2022/01/24 14:21:37;;;;;;;3.45;1.98;;;7.90;99.90;;;;;;5077639;28;20021;-54
2022/01/24 14:24:05;;;;;;;3.38;1.83;;;7.60;99.90;;;;;;5094716;28;20028;-56
2022/01/24 14:26:31;;;;;;;2.63;1.17;;;7.40;99.90;;;;;;5095563;28;20062;-55
2022/01/24 14:29:12;;;;;;;6.18;1.90;;;7.40;99.90;;;;;;5095809;28;20063;-53
2022/01/24 14:31:40;;;;;;;2.13;1.48;;;7.40;99.90;;;;;;5077761;28;20066;-52
2022/01/24 14:34:08;;;;;;;2.28;1.25;;;7.40;99.90;;;;;;5077688;28;20039;-53
2022/01/24 14:36:34;;;;;;;2.25;1.58;;;7.40;99.90;;;;;;5095294;28;20027;-56
2022/01/24 14:39:02;;;;;;;2.00;1.40;;;7.60;99.90;;;;;;5077538;28;20027;-55
2022/01/24 14:41:30;;;;;;;6.55;1.50;;;7.50;99.90;;;;;;5095526;28;20028;-53
2022/01/24 14:46:43;;;;;;;1.70;1.58;;;7.30;99.90;;;;;;5095691;28;20078;-50
2022/01/24 14:49:17;;;;;;;4.00;2.47;;;7.10;99.90;;;;;;5095164;28;20031;-51
2022/01/24 14:51:45;;;;;;;4.97;2.03;;;6.90;99.90;;;;;;5095439;28;20069;-56
2022/01/24 14:54:17;;;;;;;3.78;2.15;;;6.60;99.90;;;;;;5095332;28;20024;-50
2022/01/24 14:56:45;;;;;;;5.60;2.78;;;6.60;99.90;;;;;;5094954;28;20085;-56
2022/01/24 14:59:11;;;;;;;4.68;2.80;;;6.60;99.90;;;;;;5095295;28;20080;-48
2022/01/24 15:01:37;;;;;;;2.25;1.80;;;6.50;99.90;;;;;;5094958;28;20059;-52
2022/01/24 15:04:04;;;;;;;3.35;2.10;;;6.40;99.90;;;;;;5077146;28;20102;-54
2022/01/24 15:06:31;;;;;;;3.40;1.98;;;6.30;99.90;;;;;;5077181;28;20027;-50